Tiempo atmosférico en la estación meteorológica de Cervera De Pisuerga, Palencia (1140 m.)



Fecha
DESCASC
Temp. máxima en grados centígrados (hora)
DESCASC
Temp. mínima en grados centígrados (hora)
DESCASC
Temp. media en grados centígrados
DESCASC
Racha de viento máxima en m/sg (hora)
DESCASC
Velocidad máxima media en intervalos de 10 minutos(hora)
DESCASC
Precipitaciones diarias en mm
DESCASC
Precipitaciones de 00:00 a 06:00 en mm
DESCASC
Precipitaciones de 06:00 a 12:00 en mm
DESCASC
Precipitaciones de 12:00 a 18:00 en mm
DESCASC
Precipitaciones de 18:00 a 24:00 en mm
DESCASC
23-06-2019 -- (--) -- (--) -- 14.72 (14:30) 8.06 (14:10) 0 0 0 0 0
22-06-2019 -- (--) -- (--) -- 12.5 (18:30) 5 (06:10) 0 0 0 0 0
21-06-2019 -- (--) -- (--) -- 6.94 (12:00) 4.17 (07:30) 1.4 1.2 0.2 0 0
20-06-2019 -- (--) -- (--) -- 8.61 (20:20) 4.17 (20:20) 5.4 0 0 0 5.4
19-06-2019 -- (--) -- (--) -- 15 (00:10) 6.11 (15:20) 0.8 0 0.8 0 0
18-06-2019 -- (--) -- (--) -- 17.5 (14:00) 9.72 (14:00) 0 0 0 0 0
17-06-2019 -- (--) -- (--) -- 13.89 (16:10) 6.67 (14:10) 0 0 0 0 0
16-06-2019 -- (--) -- (--) -- 10.56 (15:20) 4.72 (17:00) 0 0 0 0 0
15-06-2019 -- (--) -- (--) -- 9.17 (17:10) 5 (12:20) 0 0 0 0 0
14-06-2019 -- (--) -- (--) -- 11.11 (16:30) 5.28 (15:10) 0 0 0 0 0
13-06-2019 -- (--) -- (--) -- 12.5 (16:40) 7.78 (16:20) 0 0 0 0 0
12-06-2019 -- (--) -- (--) -- 8.33 (14:00) 4.72 (13:50) 0 0 0 0 0
11-06-2019 -- (--) -- (--) -- 11.11 (12:50) 4.72 (14:40) 0.2 0 0.2 0 0
10-06-2019 -- (--) -- (--) -- 6.94 (13:00) 4.44 (14:00) 0.8 0 0 0 0.8
09-06-2019 -- (--) -- (--) -- 10 (20:20) 5 (20:20) 3.4 0 0 0 3.4
08-06-2019 -- (--) -- (--) -- 11.39 (18:40) 4.44 (14:00) 0 0 0 0 0
07-06-2019 -- (--) -- (--) -- 15.83 (05:50) 8.89 (04:30) 0.6 0.6 0 0 0
06-06-2019 -- (--) -- (--) -- 23.61 (22:50) 10.28 (22:30) 13.8 0 0 0 13.8
05-06-2019 -- (--) -- (--) -- 12.22 (13:00) 5 (14:40) 7.2 5.4 0 0.8 1
04-06-2019 -- (--) -- (--) -- 13.33 (17:40) 7.78 (17:40) 0 0 0 0 0
03-06-2019 -- (--) -- (--) -- 12.78 (19:20) 6.67 (19:20) 0 0 0 0 0
02-06-2019 -- (--) -- (--) -- 11.67 (12:40) 5.28 (12:00) 0 0 0 0 0
01-06-2019 -- (--) -- (--) -- 9.17 (16:10) 4.44 (16:10) 0 0 0 0 0
31-05-2019 -- (--) -- (--) -- 8.06 (17:20) 4.17 (22:30) 0 0 0 0 0
30-05-2019 -- (--) -- (--) -- 7.78 (15:50) 4.72 (06:40) 0 0 0 0 0
29-05-2019 -- (--) -- (--) -- 10.56 (14:30) 4.72 (13:20) 0 0 0 0 0
28-05-2019 -- (--) -- (--) -- 12.5 (17:10) 5.83 (18:00) 0 0 0 0 0
27-05-2019 -- (--) -- (--) -- 9.72 (19:40) 5 (15:50) 0 0 0 0 0
26-05-2019 -- (--) -- (--) -- 10.28 (01:00) 5 (00:40) 0 0 0 0 0

Gráficas

Temp. máximas Temp. mínimas Temp. medias Precipitaciones Rachas de viento máximas Velocidades máximas media en intervalos de 10 minutos

Datos horarios

Fecha y hora oficial Temperatura (ºC) Velocidad del viento (km/h) Dirección del viento Racha (km/h) Dirección de racha Precipitación (mm) Presión (hPa) Tendencia (hPa) Humedad (%)
2019-06-24 23:00:00 12.3 9 Noroeste 24 Sur 0.6 889 1.5 88
2019-06-24 22:00:00 14.4 7 Oeste 25 Oeste 0 888.5 1.3 71
2019-06-24 21:00:00 15.4 12 Noroeste 40 Oeste 0 888.3 1.2 67
2019-06-24 20:00:00 16.5 12 Oeste 36 Oeste 0 887.5 0.6 64
2019-06-24 19:00:00 17.4 12 Oeste 34 Oeste 0 887.2 0.6 63
2019-06-24 18:00:00 19.3 10 Sudoeste 24 Sudoeste 0 887.1 0.7 60
2019-06-24 17:00:00 20.7 10 Sudoeste 24 Sudoeste 0 886.9 0.1 52
2019-06-24 16:00:00 22.1 11 Sudoeste 24 Sur 0 886.6 0.1 52
2019-06-24 15:00:00 22.3 9 Sudoeste 36 Sudoeste 0 886.4 0.1 47
2019-06-24 14:00:00 21.2 12 Sur 24 Sur 0 886.8 0.2 50
2019-06-24 13:00:00 21 12 Sur 22 Sur 0 886.5 -0.1 53
2019-06-24 12:00:00 20.7 13 Sur 21 Sur 0 886.3 0 54
2019-06-24 11:00:00 17.7 3 Sudeste 13 Sur 0 886.6 0.4 63
2019-06-24 10:00:00 15.7 2 Sur 7 Sudoeste 0 886.6 0.8 70
2019-06-24 09:00:00 13 4 Oeste 18 Oeste 0 886.3 0.3 76
2019-06-24 08:00:00 12.5 3 Noroeste 16 Noroeste 0 886.2 -0.1 73
2019-06-24 07:00:00 13.6 6 Noroeste 18 Oeste 0 885.8 -0.3 63
2019-06-24 06:00:00 13.8 5 Noroeste 26 Oeste 0 886 -0.4 61
2019-06-24 05:00:00 12.7 8 Oeste 20 Oeste 0 886.3 -0.3 68
2019-06-24 04:00:00 13.8 6 Noroeste 21 Oeste 0 886.1 -0.8 64
2019-06-24 03:00:00 13.4 6 Noroeste 20 Noroeste 0 886.4 -0.4 66
2019-06-24 02:00:00 13.7 6 Noroeste 17 Oeste 0 886.6 -0.1 65
2019-06-24 01:00:00 13.2 5 Oeste 16 Oeste 0 886.9 0.6 66
2019-06-24 00:00:00 14.7 4 Sudoeste 21 Sur 0 886.8 0.6 59
2019-06-23 23:00:00 17 5 Sudoeste 22 Oeste 0 886.7 0.8 55
2019-06-23 22:00:00 19 9 Sudoeste 20 Sur 0 886.3 0.7 45
2019-06-23 21:00:00 19.5 12 Sudoeste 36 Sudoeste 0 886.2 0 39
2019-06-23 20:00:00 19.2 20 Sudoeste 41 Sudoeste 0 885.9 -0.5 37
2019-06-23 19:00:00 20.4 16 Sudoeste 40 Sudoeste 0 885.6 -1 32
2019-06-23 18:00:00 20.8 12 Sudoeste 32 Oeste 0 886.2 -0.3 35
2019-06-23 17:00:00 23.1 13 Sudoeste 31 Sudoeste 0 886.4 0.3 36
2019-06-23 16:00:00 19.5 13 Sudoeste 48 Sur 0 886.6 0.4 45
2019-06-23 15:00:00 20.3 23 Sur 53 Sur 0 886.5 0.5 37
2019-06-23 14:00:00 24.2 21 Sur 48 Sur 0 886.1 0.3 32
2019-06-23 13:00:00 22.6 21 Sur 43 Sur 0 886.2 0.7 36
2019-06-23 12:00:00 21.4 17 Sudoeste 40 Sur 0 886 0.5 45
2019-06-23 11:00:00 20 15 Sur 36 Sur 0 885.8 0.5 45
2019-06-23 10:00:00 18 12 Sudoeste 35 Sur 0 885.5 0.4 40
2019-06-23 09:00:00 17.5 6 Sudoeste 29 Sudoeste 0 885.5 0.6 46
2019-06-23 08:00:00 16.3 8 Sudoeste 33 Oeste 0 885.3 0.8 49
2019-06-23 07:00:00 14 9 Sudoeste 27 Sudoeste 0 885.1 0.5 57
2019-06-23 06:00:00 13 5 Sudoeste 22 Oeste 0 884.9 -0.1 64
2019-06-23 05:00:00 11.8 4 Noroeste 16 Noroeste 0 884.5 -1 73
2019-06-23 04:00:00 12.5 5 Noroeste 17 Oeste 0 884.6 -1.1 68
2019-06-23 03:00:00 12.5 8 Oeste 19 Oeste 0 885 -1.1 69
2019-06-23 02:00:00 14.4 12 Oeste 20 Oeste 0 885.5 -0.5 62
2019-06-23 01:00:00 14.4 11 Oeste 21 Oeste 0 885.7 -0.1 64
2019-06-23 00:00:00 14.9 14 Oeste 20 Oeste 0 886.1 0.4 63
2019-06-22 23:00:00 16.5 12 Oeste 21 Oeste 0 886 0.2 60
2019-06-22 22:00:00 18 12 Noroeste 19 Oeste 0 885.8 -0.4 56
2019-06-22 21:00:00 20.3 9 Sur 21 Sur 0 885.7 -0.6 53
2019-06-22 20:00:00 22.2 14 Sur 25 Sur 0 885.8 -0.7 38
2019-06-22 19:00:00 22.6 11 Sudoeste 45 Sur 0 886.2 -0.6 35
2019-06-22 18:00:00 24.7 14 Sudoeste 30 Sur 0 886.3 -1 32
2019-06-22 17:00:00 24.3 14 Sur 26 Oeste 0 886.5 -1.4 35
2019-06-22 16:00:00 23.4 10 Sudoeste 32 Sudoeste 0 886.8 -1.6 35
2019-06-22 15:00:00 22.2 11 Sudoeste 23 Sudoeste 0 887.3 -1.3 37
2019-06-22 14:00:00 21.5 7 Sudoeste 31 Sudoeste 0 887.9 -0.9 43
2019-06-22 13:00:00 20.9 6 Sudoeste 20 Sudoeste 0 888.4 -0.7 46
2019-06-22 12:00:00 17.9 4 Oeste 15 Oeste 0 888.6 -0.6 52
2019-06-22 11:00:00 15.1 3 Nordeste 10 Noroeste 0 888.8 -0.4 69
2019-06-22 10:00:00 12.8 3 Nordeste 19 Sudeste 0 889.1 -0.2 81
2019-06-22 09:00:00 9.7 6 Noroeste 24 Oeste 0 889.2 0 90
2019-06-22 08:00:00 7.4 14 Noroeste 26 Noroeste 0 889.2 -0.3 94
2019-06-22 07:00:00 6.7 15 Oeste 24 Oeste 0 889.3 -0.7 94
2019-06-22 06:00:00 7.3 16 Noroeste 24 Oeste 0 889.2 -1.1 96
2019-06-22 05:00:00 7.9 13 Oeste 23 Oeste 0 889.5 -1.1 95
2019-06-22 04:00:00 8.7 12 Oeste 22 Oeste 0 890 -1 95
2019-06-22 03:00:00 8.5 9 Noroeste 20 Oeste 0 890.3 -0.8 95
2019-06-22 02:00:00 8.3 6 Oeste 17 Sudoeste 0 890.6 -0.3 94
2019-06-22 01:00:00 8.6 4 Sudoeste 17 Oeste 0 891 0.4 92
2019-06-22 00:00:00 9.6 10 Sur 17 Sudoeste 0 891.1 0.7 91
2019-06-21 23:00:00 10.5 7 Este 12 Sudeste 0 890.9 1 85
2019-06-21 22:00:00 12.7 4 Este 12 Sudeste 0 890.6 0.8 78
2019-06-21 21:00:00 14.1 6 Sudeste 14 Sudeste 0 890.4 0.3 73
2019-06-21 20:00:00 15 8 Sudeste 20 Este 0 889.9 -0.2 69
2019-06-21 19:00:00 16.2 6 Sudeste 17 Este 0 889.8 -0.5 63
2019-06-21 18:00:00 16.4 9 Sudeste 23 Sur 0 890.1 -0.2 65
2019-06-21 17:00:00 16 5 Este 19 Este 0 890.1 -0.4 68
2019-06-21 16:00:00 15.7 8 Sudeste 22 Sudeste 0 890.3 -0.1 71
2019-06-21 15:00:00 16.1 9 Sudeste 18 Sudeste 0 890.3 -0.2 65
2019-06-21 14:00:00 15.3 6 Sudeste 22 Sur 0 890.5 0.5 68
2019-06-21 13:00:00 14.6 10 Sudeste 23 Sur 0 890.4 0.5 76
2019-06-21 12:00:00 12.9 13 Sudeste 25 Sudeste 0 890.5 1.1 80
2019-06-21 11:00:00 13.3 11 Sudeste 19 Nordeste 0 890 1 81
2019-06-21 10:00:00 11.6 5 Nordeste 17 Sudoeste 0 889.9 1.4 88
2019-06-21 09:00:00 10.1 9 Sudoeste 19 Oeste 0 889.4 1.2 94
2019-06-21 08:00:00 8.5 7 Noroeste 21 Oeste 0.2 889 0.8 94
2019-06-21 07:00:00 7.7 8 Noroeste 22 Oeste 0 888.5 0.1 94
2019-06-21 06:00:00 8.3 8 Noroeste 22 Oeste 0 888.2 -0.4 93
2019-06-21 05:00:00 8.2 6 Noroeste 19 Oeste 0 888.2 0 93
2019-06-21 04:00:00 9.2 8 Oeste 22 Oeste 0 888.4 -0.7 93
2019-06-21 03:00:00 9.7 5 Noroeste 21 Oeste 0 888.6 -0.9 94
2019-06-21 02:00:00 9.6 7 Nordeste 17 Oeste 0 888.2 -0.8 94
2019-06-21 01:00:00 9.7 7 Sur 16 Sudoeste 1.2 889.1 1.1 93
2019-06-21 00:00:00 9.7 5 Oeste 19 Oeste 2.4 889.5 1.6 93
2019-06-20 23:00:00 10 4 Noroeste 18 Sudoeste 0.2 889 1.9 93
2019-06-20 22:00:00 9.9 5 Norte 23 Nordeste 1.8 888 1.2 93
2019-06-20 21:00:00 10.4 11 Norte 31 Norte 0.2 887.9 0.2 91
2019-06-20 20:00:00 11.4 13 Noroeste 28 Norte 0 887.1 -0.2 85
2019-06-20 19:00:00 13.6 8 Noroeste 25 Oeste 0.8 886.8 -0.4 85
2019-06-20 18:00:00 11.4 8 Noroeste 31 Oeste 0 887.7 0.2 78
2019-06-20 17:00:00 14.2 11 Noroeste 23 Norte 0 887.3 -0.5 71
2019-06-20 16:00:00 19.1 11 Sudeste 25 Este 0 887.2 -0.9 59
2019-06-20 15:00:00 18.1 9 Sudeste 23 Este 0 887.5 -0.5 61
2019-06-20 14:00:00 17.7 12 Este 27 Sudeste 0 887.8 -0.1 61
2019-06-20 13:00:00 15.7 15 Sudeste 26 Sur 0 888.1 0.1 70
2019-06-20 12:00:00 16.4 10 Sudeste 24 Sudeste 0 888 0 68
2019-06-20 11:00:00 14.4 10 Sudeste 24 Sudeste 0 887.9 -0.1 75
2019-06-20 10:00:00 13.7 9 Sudeste 21 Sudeste 0 888 0 80
2019-06-20 09:00:00 11.7 3 Norte 20 Oeste 0 888 0.2 89
2019-06-20 08:00:00 10.8 9 Oeste 18 Oeste 0 888 0.1 94
2019-06-20 07:00:00 10.2 4 Este 15 Sur 0 888 0 93
2019-06-20 06:00:00 10.1 2 Nordeste 16 Sudoeste 0 887.8 -0.4 92
2019-06-20 05:00:00 10.3 4 Este 16 Sudoeste 0 887.9 -0.4 93
2019-06-20 04:00:00 10.3 3 Sudeste 15 Sur 0 888 -0.1 93
2019-06-20 03:00:00 10.3 4 Este 15 Sudoeste 0 888.2 0.1 91
2019-06-20 02:00:00 10.3 5 Norte 15 Noroeste 0 888.3 0.4 92
2019-06-20 01:00:00 10.3 8 Norte 17 Noroeste 0 888.1 0.9 90
2019-06-20 00:00:00 11.1 6 Norte 15 Noroeste 0 888.1 1.2 86
2019-06-19 23:00:00 12.1 6 Norte 23 Noroeste 0 887.9 1.7 83
2019-06-19 22:00:00 12.8 3 Norte 21 Norte 0 887.2 1.2 79
2019-06-19 21:00:00 14.2 12 Norte 23 Noroeste 0 886.9 0.9 75
2019-06-19 20:00:00 20 10 Sudoeste 24 Sur 0 886.2 -0.1 46
2019-06-19 19:00:00 21 11 Sudoeste 34 Sur 0 886 -0.5 48
2019-06-19 18:00:00 20.2 10 Sudoeste 30 Sudoeste 0 886 -0.5 50
2019-06-19 17:00:00 19.6 15 Sudoeste 36 Sur 0 886.3 -0.4 54
2019-06-19 16:00:00 18.6 18 Sur 39 Sur 0 886.5 -0.1 58
2019-06-19 15:00:00 18.1 11 Sudoeste 36 Sur 0 886.5 0.1 62
2019-06-19 14:00:00 16.9 4 Sudoeste 29 Sudoeste 0 886.7 0.5 66
2019-06-19 13:00:00 16.1 13 Sudoeste 30 Sur 0 886.6 0.6 70
2019-06-19 12:00:00 14.7 14 Sudoeste 30 Sur 0 886.4 0.7 77
2019-06-19 11:00:00 13.5 11 Sudoeste 28 Sur 0 886.2 1 85
2019-06-19 10:00:00 13.3 12 Sudoeste 30 Sur 0 886 0.7 86
2019-06-19 09:00:00 13.4 13 Sudoeste 31 Sur 0.4 885.7 0.4 91
2019-06-19 08:00:00 12.2 8 Sudeste 28 Sur 0.4 885.2 0.2 90
2019-06-19 07:00:00 13.1 7 Sur 31 Oeste 0 885.3 0.5 80
2019-06-19 06:00:00 13.4 12 Sudoeste 34 Oeste 0 885.3 0.2 76
2019-06-19 05:00:00 13.1 12 Sudoeste 42 Oeste 0 885 -0.3 81
2019-06-19 04:00:00 13.7 16 Sudoeste 54 Sur 0 884.8 -0.8 75
2019-06-19 03:00:00 14 17 Sudoeste 47 Oeste 0 885.1 -0.6 75
2019-06-19 02:00:00 13.9 21 Sudoeste 47 Oeste 0 885.3 0 77
2019-06-19 01:00:00 14.3 19 Sudoeste 54 Noroeste 0 885.6 0.7 74
2019-06-19 00:00:00 14.1 14 Sudoeste 45 Oeste 0 885.7 1 75
2019-06-18 23:00:00 15.1 27 Sudoeste 57 Oeste 0 885.3 1 68
2019-06-18 22:00:00 16.3 21 Sudoeste 59 Oeste 0 884.9 0.9 58
2019-06-18 21:00:00 17.7 23 Sudoeste 63 Sur 0 884.7 0.8 51
2019-06-18 20:00:00 18.9 26 Sudoeste 59 Sudoeste 0 884.3 0.6 46
2019-06-18 19:00:00 19.9 24 Sudoeste 57 Sur 0 884 0.4 47
2019-06-18 18:00:00 22.1 14 Sudoeste 50 Sudoeste 0 883.9 -0.1 41
2019-06-18 17:00:00 22.9 28 Sudoeste 51 Sur 0 883.7 -0.6 32
2019-06-18 16:00:00 23.9 24 Sudoeste 58 Sudoeste 0 883.6 -0.9 24
2019-06-18 15:00:00 23.5 32 Sur 61 Sur 0 884 -0.5 23
2019-06-18 14:00:00 22.8 35 Sur 63 Sur 0 884.3 -0.2 20
2019-06-18 13:00:00 21.3 24 Sudoeste 60 Sur 0 884.5 -0.2 18
2019-06-18 12:00:00 20.4 24 Sudoeste 44 Oeste 0 884.5 -0.3 30
2019-06-18 11:00:00 19.5 17 Sudoeste 42 Sur 0 884.5 -0.4 40
2019-06-18 10:00:00 17.9 21 Sur 43 Sur 0 884.7 0 40
2019-06-18 09:00:00 15.6 11 Sur 27 Este 0 884.8 0.1 42
2019-06-18 08:00:00 13.2 10 Sudeste 29 Sudoeste 0 884.9 0.1 47
2019-06-18 07:00:00 11.7 5 Sur 27 Sur 0 884.7 -0.6 51
2019-06-18 06:00:00 12.2 5 Noroeste 18 Oeste 0 884.7 -1.4 49
2019-06-18 05:00:00 13.4 11 Noroeste 18 Noroeste 0 884.8 -1.9 44
2019-06-18 04:00:00 14.6 7 Noroeste 22 Noroeste 0 885.3 -2 39
2019-06-18 03:00:00 14.6 8 Noroeste 27 Oeste 0 886.1 -1.3 41
2019-06-18 02:00:00 16.1 7 Oeste 22 Oeste 0 886.7 -0.7 36
2019-06-18 01:00:00 18.2 11 Sudoeste 41 Oeste 0 887.3 0.5 31
2019-06-18 00:00:00 19.4 15 Sudoeste 44 Oeste 0 887.4 0.6 27
2019-06-17 23:00:00 19.6 15 Sudoeste 37 Sudoeste 0 887.4 1.1 26
2019-06-17 22:00:00 19.2 8 Sudoeste 38 Noroeste 0 886.8 0.1 31
2019-06-17 21:00:00 20.3 10 Sudoeste 30 Noroeste 0 886.8 -0.3 31
2019-06-17 20:00:00 21.2 8 Sudoeste 27 Noroeste 0 886.3 -1 30
2019-06-17 19:00:00 22 12 Sudoeste 24 Sudoeste 0 886.7 -0.6 32
2019-06-17 18:00:00 23 13 Sudoeste 32 Sudoeste 0 887.1 -0.7 32
2019-06-17 17:00:00 23.2 19 Sudoeste 50 Sur 0 887.3 -0.8 29
2019-06-17 16:00:00 25 14 Sudoeste 47 Sur 0 887.3 -1.2 27
2019-06-17 15:00:00 25.2 18 Sur 49 Sur 0 887.8 -1 29
2019-06-17 14:00:00 24.3 19 Sur 45 Sur 0 888.1 -0.8 32
2019-06-17 13:00:00 23.8 20 Sur 42 Sur 0 888.5 -0.6 33
2019-06-17 12:00:00 22.1 14 Sur 32 Sudoeste 0 888.8 -0.2 42
2019-06-17 11:00:00 18.4 12 Sudeste 21 Sur 0 888.9 0.1 63
2019-06-17 10:00:00 15.7 9 Sur 15 Sur 0 889.1 0.2 74
2019-06-17 09:00:00 13.5 2 Noroeste 24 Oeste 0 889 0 74
2019-06-17 08:00:00 10.8 5 Noroeste 22 Oeste 0 888.8 -0.4 79
2019-06-17 07:00:00 10.5 13 Noroeste 25 Oeste 0 888.9 -0.5 82
2019-06-17 06:00:00 10.3 9 Noroeste 26 Oeste 0 889 -0.7 82
2019-06-17 05:00:00 10.9 6 Noroeste 25 Oeste 0 889.2 -0.8 80
2019-06-17 04:00:00 10.6 10 Noroeste 24 Oeste 0 889.4 -0.9 82
2019-06-17 03:00:00 10.9 5 Noroeste 19 Oeste 0 889.7 -0.8 81
2019-06-17 02:00:00 11.4 4 Noroeste 13 Noroeste 0 890 -0.3 83
2019-06-17 01:00:00 12.1 4 Noroeste 17 Noroeste 0 890.3 0.6 79
2019-06-17 00:00:00 12.6 4 Noroeste 18 Noroeste 0 890.5 1.4 75
2019-06-16 23:00:00 13.8 8 Noroeste 19 Noroeste 0 890.3 1.3 77
2019-06-16 22:00:00 14.9 12 Noroeste 23 Norte 0 889.7 0.9 69
2019-06-16 21:00:00 17.7 12 Norte 21 Sudoeste 0 889.1 0.1 56
2019-06-16 20:00:00 22.3 11 Sudoeste 22 Sur 0 889 -0.3 28
2019-06-16 19:00:00 23.8 11 Sudoeste 24 Sur 0 888.8 -1 25
2019-06-16 18:00:00 25 10 Sudoeste 27 Sur 0 889 -1 26
2019-06-16 17:00:00 24.4 17 Sur 30 Sur 0 889.3 -1.1 28
2019-06-16 16:00:00 24.1 14 Sudoeste 38 Sur 0 889.8 -0.8 31
2019-06-16 15:00:00 23.2 11 Sur 34 Sudoeste 0 890 -1.1 34
2019-06-16 14:00:00 22 11 Sudoeste 33 Sudoeste 0 890.4 -0.9 36
2019-06-16 13:00:00 20.7 14 Sur 36 Sur 0 890.6 -0.8 41
2019-06-16 12:00:00 18.4 13 Sur 34 Sur 0 891.1 -0.1 50
2019-06-16 11:00:00 14.5 6 Sudeste 17 Sur 0 891.3 0.4 68
2019-06-16 10:00:00 11 8 Sudoeste 19 Sudoeste 0 891.4 0.4 87
2019-06-16 09:00:00 8.6 10 Oeste 19 Oeste 0 891.2 0.2 91
2019-06-16 08:00:00 6.6 15 Oeste 21 Oeste 0 890.9 -0.3 93
2019-06-16 07:00:00 5.5 10 Noroeste 20 Oeste 0 891 -0.7 94
2019-06-16 06:00:00 5.6 12 Oeste 21 Oeste 0 891 -0.8 94
2019-06-16 05:00:00 5.2 9 Noroeste 19 Oeste 0 891.2 -1 95
2019-06-16 04:00:00 5 8 Noroeste 19 Oeste 0 891.7 -0.6 93
2019-06-16 03:00:00 6 13 Noroeste 21 Oeste 0 891.8 -0.5 93
2019-06-16 02:00:00 6.3 8 Noroeste 19 Oeste 0 892.2 0 93
2019-06-16 01:00:00 6.7 13 Oeste 19 Nordeste 0 892.3 0.8 92
2019-06-16 00:00:00 7.3 6 Norte 19 Nordeste 0 892.3 1 91
2019-06-15 23:00:00 7.8 5 Norte 21 Norte 0 892.2 1.6 87
2019-06-15 22:00:00 9.2 8 Norte 18 Norte 0 891.5 1.4 83
2019-06-15 21:00:00 11.7 7 Norte 21 Oeste 0 891.3 1 73
2019-06-15 20:00:00 16.1 8 Nordeste 25 Este 0 890.6 0.2 57
2019-06-15 19:00:00 21 9 Sudoeste 30 Sudoeste 0 890.1 -0.5 34
2019-06-15 18:00:00 20.2 14 Sur 33 Sur 0 890.3 -0.3 35
2019-06-15 17:00:00 20.3 12 Sudeste 32 Sur 0 890.4 -0.4 40
2019-06-15 16:00:00 19.1 15 Sur 31 Sur 0 890.6 -0.2 38
2019-06-15 15:00:00 17.3 12 Sudeste 30 Sur 0 890.6 0 47
2019-06-15 14:00:00 17 15 Sudoeste 30 Sur 0 890.8 0.4 47
2019-06-15 13:00:00 13.7 17 Sudeste 29 Sur 0 890.8 0.5 56
2019-06-15 12:00:00 12.1 12 Sudeste 26 Sur 0 890.6 0.6 66
2019-06-15 11:00:00 11.5 10 Este 22 Sur 0 890.4 1 70
2019-06-15 10:00:00 9.9 8 Sur 18 Sur 0 890.3 1.5 81
2019-06-15 09:00:00 8.1 6 Nordeste 14 Oeste 0 890 1.4 88
2019-06-15 08:00:00 7 7 Sudeste 14 Este 0 889.4 1.2 90
2019-06-15 07:00:00 6.8 8 Sudeste 13 Sur 0 888.8 0.7 89
2019-06-15 06:00:00 6.9 5 Sudeste 15 Sur 0 888.6 0.6 87
2019-06-15 05:00:00 7.2 7 Oeste 21 Oeste 0 888.2 0.4 81
2019-06-15 04:00:00 7 8 Oeste 21 Oeste 0 888.1 0.2 82
2019-06-15 03:00:00 7.3 15 Oeste 20 Oeste 0 888 0.5 82
2019-06-15 02:00:00 7.4 14 Oeste 22 Oeste 0 887.8 1 76
2019-06-15 01:00:00 8 12 Noroeste 23 Oeste 0 887.9 2 73
2019-06-15 00:00:00 7.4 10 Noroeste 21 Oeste 0 887.5 2.4 80
2019-06-14 23:00:00 7.8 6 Noroeste 19 Oeste 0 886.8 2.4 83
2019-06-14 22:00:00 8.3 9 Norte 18 Oeste 0 885.9 2.1 83
2019-06-14 21:00:00 9.5 7 Norte 26 Norte 0 885.1 1.9 81
2019-06-14 20:00:00 11.2 11 Norte 24 Norte 0 884.4 1.6 74
2019-06-14 19:00:00 14.2 10 Norte 27 Norte 0 883.8 0.9 63
2019-06-14 18:00:00 16.5 12 Norte 34 Sur 0 883.2 0.5 58
2019-06-14 17:00:00 20.7 15 Sur 40 Sur 0 882.8 0 30
2019-06-14 16:00:00 21.2 15 Sur 38 Sur 0 882.9 -0.1 30
2019-06-14 15:00:00 20.2 13 Sur 33 Sur 0 882.7 -0.4 38
2019-06-14 14:00:00 20.2 14 Sur 33 Este 0 882.8 -0.5 37
2019-06-14 13:00:00 17.8 14 Sudeste 27 Sur 0 883 -0.4 50
2019-06-14 12:00:00 16.2 6 Este 17 Sudeste 0 883.1 0 61
2019-06-14 11:00:00 11.9 9 Sudeste 20 Sur 0 883.3 0.3 74
2019-06-14 10:00:00 9 9 Sudeste 18 Sur 0 883.4 0.1 83
2019-06-14 09:00:00 6.9 7 Oeste 20 Noroeste 0 883.1 -0.2 89
2019-06-14 08:00:00 4 9 Noroeste 18 Noroeste 0 883 -0.3 92
2019-06-14 07:00:00 2.7 6 Noroeste 16 Oeste 0 883.3 -0.3 91
2019-06-14 06:00:00 4.1 7 Noroeste 18 Oeste 0 883.3 -0.6 91
2019-06-14 05:00:00 4.1 7 Noroeste 18 Oeste 0 883.3 -1.1 92
2019-06-14 04:00:00 4 9 Noroeste 18 Oeste 0 883.6 -0.9 92
2019-06-14 03:00:00 4.4 8 Noroeste 17 Oeste 0 883.9 -0.6 92
2019-06-14 02:00:00 4.6 12 Oeste 19 Oeste 0 884.4 0.5 91
2019-06-14 01:00:00 5.2 9 Noroeste 19 Noroeste 0 884.5 1.4 91
2019-06-14 00:00:00 6.1 8 Norte 18 Norte 0 884.5 2 89
2019-06-13 23:00:00 6.8 8 Norte 22 Oeste 0 883.9 2.3 86
2019-06-13 22:00:00 7.7 10 Norte 22 Noroeste 0 883.1 1.9 83
2019-06-13 21:00:00 11 8 Norte 21 Nordeste 0 882.5 1.4 65
2019-06-13 20:00:00 15.6 6 Norte 39 Sur 0 881.6 0.7 46
2019-06-13 19:00:00 20.2 20 Sur 42 Sur 0 881.2 -0.1 25
2019-06-13 18:00:00 20.8 17 Sudoeste 44 Sur 0 881.1 -0.2 25
2019-06-13 17:00:00 19.9 18 Sur 45 Sur 0 880.9 -0.7 26
2019-06-13 16:00:00 20 21 Sur 39 Sur 0 881.3 -0.6 27
2019-06-13 15:00:00 19.1 24 Sur 39 Sur 0 881.3 -0.8 34
2019-06-13 14:00:00 18.1 12 Sur 32 Sur 0 881.6 -0.5 45
2019-06-13 13:00:00 15.8 13 Sudeste 27 Sur 0 881.9 -0.3 55
2019-06-13 12:00:00 13.7 9 Este 22 Sur 0 882.1 0 65
2019-06-13 11:00:00 10.8 13 Sur 22 Sur 0 882.1 0 74
2019-06-13 10:00:00 7.9 10 Sur 20 Sur 0 882.2 0.1 84
2019-06-13 09:00:00 5.2 4 Sur 15 Oeste 0 882.1 0.1 91
2019-06-13 08:00:00 3.3 5 Noroeste 17 Oeste 0 882.1 -0.1 93
2019-06-13 07:00:00 2.1 8 Noroeste 18 Oeste 0 882.1 -0.3 93
2019-06-13 06:00:00 1.6 4 Noroeste 17 Oeste 0 882 -0.8 92
2019-06-13 05:00:00 2.7 9 Noroeste 16 Noroeste 0 882.2 -1.1 92
2019-06-13 04:00:00 2.5 7 Noroeste 17 Oeste 0 882.4 -1.3 92
2019-06-13 03:00:00 3.3 8 Noroeste 17 Oeste 0 882.8 -1.2 92
2019-06-13 02:00:00 3.8 7 Noroeste 16 Oeste 0 883.3 -0.7 92
2019-06-13 01:00:00 4.4 7 Norte 16 Oeste 0 883.7 0 92
2019-06-13 00:00:00 4.4 6 Noroeste 17 Oeste 0 884 0.5 89
2019-06-12 23:00:00 5.8 8 Norte 19 Noroeste 0 884 0.7 87
2019-06-12 22:00:00 7.3 9 Norte 21 Noroeste 0 883.7 0.5 81
2019-06-12 21:00:00 8.9 9 Norte 19 Norte 0 883.5 0 73
2019-06-12 20:00:00 11.5 7 Nordeste 18 Norte 0 883.3 -0.5 63
2019-06-12 19:00:00 14.8 10 Este 28 Sur 0 883.2 -0.8 44
2019-06-12 18:00:00 15 5 Sudeste 25 Oeste 0 883.5 -0.8 39
2019-06-12 17:00:00 14.6 4 Este 23 Sur 0 883.8 -0.7 44
2019-06-12 16:00:00 14.1 9 Este 26 Sur 0 884 -0.7 44
2019-06-12 15:00:00 12.6 15 Sur 28 Sur 0 884.3 -0.6 44
2019-06-12 14:00:00 14.9 15 Sur 30 Sur 0 884.5 -0.3 43
2019-06-12 13:00:00 13.4 15 Sur 30 Sur 0 884.7 -0.1 46
2019-06-12 12:00:00 12 13 Sur 24 Sur 0 884.9 0.2 45
2019-06-12 11:00:00 9.4 8 Sur 18 Sur 0 884.8 0.2 54
2019-06-12 10:00:00 7.1 5 Oeste 17 Oeste 0 884.8 0.3 56
2019-06-12 09:00:00 5.3 5 Noroeste 14 Oeste 0 884.7 0.2 64
2019-06-12 08:00:00 1.6 6 Noroeste 17 Noroeste 0 884.6 0.1 82
2019-06-12 07:00:00 0.5 6 Noroeste 20 Oeste 0 884.5 -0.3 89
2019-06-12 06:00:00 0 3 Oeste 18 Sudoeste 0 884.5 -0.8 89
2019-06-12 05:00:00 0.6 3 Sudeste 17 Oeste 0 884.5 -1 84
2019-06-12 04:00:00 2.4 7 Noroeste 18 Oeste 0 884.8 -1.1 78
2019-06-12 03:00:00 2.1 4 Oeste 17 Oeste 0 885.3 -1 82
2019-06-12 02:00:00 2.2 5 Oeste 17 Oeste 0 885.5 -1.1 79
2019-06-12 01:00:00 3.4 6 Noroeste 16 Oeste 0 885.9 -0.6 75
2019-06-12 00:00:00 3.8 5 Noroeste 18 Norte 0 886.3 0.1 71
2019-06-11 23:00:00 4.4 7 Noroeste 24 Norte 0 886.6 0.2 77
2019-06-11 22:00:00 6.2 13 Norte 24 Norte 0 886.5 0.1 71
2019-06-11 21:00:00 8.9 14 Noroeste 28 Noroeste 0 886.2 0 57
2019-06-11 20:00:00 10 11 Norte 26 Noroeste 0 886.4 0.3 51
2019-06-11 19:00:00 8.9 16 Norte 34 Norte 0 886.4 0.3 63
2019-06-11 18:00:00 11.3 14 Norte 32 Norte 0 886.2 0.1 55
2019-06-11 17:00:00 12.2 14 Norte 39 Norte 0 886.1 -0.1 51
2019-06-11 16:00:00 12.6 13 Norte 36 Norte 0 886.1 0.1 54
2019-06-11 15:00:00 11.9 13 Norte 38 Norte 0 886.1 0.3 53
2019-06-11 14:00:00 11.6 14 Norte 36 Norte 0 886.2 0.6 54
2019-06-11 13:00:00 10.9 15 Norte 40 Norte 0 886 0.4 58
2019-06-11 12:00:00 9.5 14 Norte 35 Norte 0 885.8 0.3 58
2019-06-11 11:00:00 8.4 15 Norte 30 Norte 0 885.6 0.4 64
2019-06-11 10:00:00 6.4 11 Norte 27 Norte 0 885.6 0.4 78
2019-06-11 09:00:00 5.4 11 Norte 20 Norte 0 885.5 0.5 86
2019-06-11 08:00:00 4.4 8 Noroeste 17 Noroeste 0 885.2 0.1 90
2019-06-11 07:00:00 4 8 Noroeste 16 Nordeste 0.2 885.2 -0.2 91
2019-06-11 06:00:00 4.2 7 Noroeste 17 Oeste 0 885 -0.7 92
2019-06-11 05:00:00 3.4 4 Oeste 17 Noroeste 0 885.1 -0.9 91
2019-06-11 04:00:00 4.5 8 Norte 19 Nordeste 0 885.4 -1.1 92
2019-06-11 03:00:00 4.7 6 Norte 17 Oeste 0 885.7 -1 92
2019-06-11 02:00:00 4.9 8 Noroeste 23 Noroeste 0 886 -0.9 92
2019-06-11 01:00:00 5.3 8 Noroeste 17 Norte 0 886.5 -0.1 92
2019-06-11 00:00:00 5.3 11 Norte 19 Norte 0.2 886.7 -0.3 91
2019-06-10 23:00:00 5.8 7 Oeste 19 Norte 0.4 886.9 -0.1 91
2019-06-10 22:00:00 6.1 8 Norte 19 Oeste 0 886.6 -0.8 91
2019-06-10 21:00:00 6.9 8 Norte 21 Norte 0 887 -0.5 90
2019-06-10 20:00:00 7.4 8 Norte 22 Nordeste 0.2 887 -0.8 89
2019-06-10 19:00:00 9.4 7 Nordeste 19 Nordeste 0 887.4 -0.6 78
2019-06-10 18:00:00 9.9 9 Este 19 Sudeste 0 887.5 -1 74
2019-06-10 17:00:00 11.5 9 Este 22 Este 0 887.8 -1 67
2019-06-10 16:00:00 13 13 Sudeste 22 Sudeste 0 888 -1.1 61
2019-06-10 15:00:00 13 9 Sudeste 24 Sur 0 888.5 -0.9 63
2019-06-10 14:00:00 12.7 16 Sur 23 Sur 0 888.8 -0.7 61
2019-06-10 13:00:00 12.8 14 Sur 25 Sur 0 889.1 -0.4 64
2019-06-10 12:00:00 11.2 12 Sudeste 22 Sur 0 889.4 0 73
2019-06-10 11:00:00 9.5 11 Sudeste 23 Este 0 889.5 0.1 81
2019-06-10 10:00:00 7.5 6 Sur 15 Sur 0 889.5 0.4 92
2019-06-10 09:00:00 5.4 0 Calma 12 Oeste 0 889.4 0.2 95
2019-06-10 08:00:00 3.6 3 Oeste 15 Oeste 0 889.4 0 96
2019-06-10 07:00:00 2.9 4 Oeste 17 Oeste 0 889.1 -0.6 95
2019-06-10 06:00:00 2.7 5 Noroeste 17 Oeste 0 889.2 -0.9 95
2019-06-10 05:00:00 2.9 3 Sudoeste 9 Oeste 0 889.4 -1.1 94
2019-06-10 04:00:00 3.7 6 Noroeste 17 Oeste 0 889.7 -0.8 94
2019-06-10 03:00:00 4.2 7 Oeste 17 Norte 0 890.1 -0.9 93
2019-06-10 02:00:00 5.1 9 Norte 18 Oeste 0 890.5 -0.4 92
2019-06-10 01:00:00 6.1 9 Noroeste 21 Oeste 0 890.5 0.6 91
2019-06-10 00:00:00 6.7 7 Norte 17 Noroeste 0 891 1.6 92
2019-06-09 23:00:00 6.9 7 Norte 21 Oeste 0 890.9 0.9 91
2019-06-09 22:00:00 7 10 Norte 33 Noroeste 0 889.9 1.3 90
2019-06-09 21:00:00 7.6 13 Noroeste 36 Norte 3.2 889.4 1 91
2019-06-09 20:00:00 9 8 Oeste 32 Noroeste 0.2 890 1.9 83
2019-06-09 19:00:00 10.4 9 Norte 30 Noroeste 0 888.6 0.4 75
2019-06-09 18:00:00 11.9 12 Norte 28 Norte 0 888.4 0.2 71
2019-06-09 17:00:00 13.2 9 Norte 31 Norte 0 888.1 -0.1 70
2019-06-09 16:00:00 11.5 9 Norte 27 Nordeste 0 888.2 0 77
2019-06-09 15:00:00 12.8 10 Norte 27 Norte 0 888.2 0 68
2019-06-09 14:00:00 13.8 7 Este 24 Este 0 888.2 0 69
2019-06-09 13:00:00 14.8 9 Este 26 Sudeste 0 888.2 -0.2 67
2019-06-09 12:00:00 14.6 9 Este 22 Sur 0 888.2 0 72
2019-06-09 11:00:00 12.6 11 Sudeste 20 Sur 0 888.2 0.1 77
2019-06-09 10:00:00 9.9 5 Norte 19 Nordeste 0 888.4 0.3 81
2019-06-09 09:00:00 9.1 7 Noroeste 20 Oeste 0 888.2 0 87
2019-06-09 08:00:00 7.9 12 Oeste 19 Oeste 0 888.1 -0.5 91
2019-06-09 07:00:00 7.3 15 Oeste 18 Oeste 0 888.1 -0.7 91
2019-06-09 06:00:00 7.3 8 Noroeste 21 Oeste 0 888.2 -0.8 91
2019-06-09 05:00:00 6.7 9 Noroeste 20 Oeste 0 888.6 -1 92
2019-06-09 04:00:00 5.9 4 Norte 19 Norte 0 888.8 -1.4 90
2019-06-09 03:00:00 6.8 9 Noroeste 19 Oeste 0 889 -1.6 90
2019-06-09 02:00:00 6.8 16 Oeste 20 Oeste 0 889.6 -1 90
2019-06-09 01:00:00 6.7 8 Norte 17 Oeste 0 890.2 0 90
2019-06-09 00:00:00 7 9 Norte 18 Noroeste 0 890.6 0.8 89
2019-06-08 23:00:00 7.4 8 Norte 20 Norte 0 890.6 0.9 88
2019-06-08 22:00:00 8.3 8 Norte 24 Norte 0 890.2 1 85
2019-06-08 21:00:00 9.8 6 Norte 20 Norte 0 889.8 0.4 78
2019-06-08 20:00:00 11.6 9 Norte 26 Nordeste 0 889.7 -0.2 71
2019-06-08 19:00:00 17.9 11 Este 41 Sur 0 889.2 -1.4 48
2019-06-08 18:00:00 19.1 14 Sur 32 Sur 0 889.4 -1.7 34
2019-06-08 17:00:00 19.2 12 Sur 26 Sur 0 889.9 -1.8 36
2019-06-08 16:00:00 18.7 11 Sudeste 29 Sur 0 890.6 -1.4 40
2019-06-08 15:00:00 17.6 10 Sur 29 Sur 0 891.1 -1.5 45
2019-06-08 14:00:00 15.4 16 Sudeste 28 Sur 0 891.7 -1.2 47
2019-06-08 13:00:00 15 6 Este 24 Sur 0 892 -1.2 57
2019-06-08 12:00:00 12.8 9 Este 21 Sur 0 892.6 -0.6 66
2019-06-08 11:00:00 9.8 11 Sur 21 Sur 0 892.9 -0.2 71
2019-06-08 10:00:00 8.6 8 Sur 16 Oeste 0 893.2 0.4 77
2019-06-08 09:00:00 6.5 3 Sudoeste 15 Oeste 0 893.2 0.7 88
2019-06-08 08:00:00 4.8 2 Este 14 Oeste 0 893.1 0.6 92
2019-06-08 07:00:00 4.3 5 Oeste 16 Oeste 0 892.8 0.3 91
2019-06-08 06:00:00 4.1 7 Noroeste 18 Oeste 0 892.5 -0.1 92
2019-06-08 05:00:00 3.2 5 Noroeste 16 Oeste 0 892.5 0 93
2019-06-08 04:00:00 2.7 6 Noroeste 16 Oeste 0 892.5 0.1 93
2019-06-08 03:00:00 2.7 6 Noroeste 18 Oeste 0 892.6 0.5 92
2019-06-08 02:00:00 3.2 5 Oeste 16 Oeste 0 892.5 0.8 91
2019-06-08 01:00:00 3.8 6 Noroeste 15 Oeste 0 892.4 1.7 88
2019-06-08 00:00:00 4.6 6 Norte 16 Oeste 0 892.1 2 86
2019-06-07 23:00:00 5.2 8 Sur 16 Este 0 891.7 2.2 81
2019-06-07 22:00:00 7.8 9 Este 22 Oeste 0 890.7 1.8 71
2019-06-07 21:00:00 11.5 14 Sudoeste 32 Sudoeste 0 890.1 2 42
2019-06-07 20:00:00 12.7 16 Sudoeste 36 Sudoeste 0 889.5 2 40
2019-06-07 19:00:00 13.6 14 Sudoeste 44 Sudoeste 0 888.9 1.8 38
2019-06-07 18:00:00 15.7 15 Sudoeste 40 Sur 0 888.1 1.8 37
2019-06-07 17:00:00 15.2 19 Sudoeste 45 Sur 0 887.5 1.5 41
2019-06-07 16:00:00 15.5 21 Sudoeste 43 Sur 0 887.1 1.5 37
2019-06-07 15:00:00 14.6 19 Sudoeste 42 Sudoeste 0 886.3 1.7 38
2019-06-07 14:00:00 14 17 Sudoeste 38 Sur 0 886 2.1 45
2019-06-07 13:00:00 12.7 14 Sudoeste 30 Sudoeste 0 885.6 2.7 53
2019-06-07 12:00:00 9.6 13 Sur 36 Sur 0 884.6 2.7 59
2019-06-07 11:00:00 8.5 13 Sudoeste 35 Sudoeste 0 883.9 3 62
2019-06-07 10:00:00 5.8 9 Sudoeste 31 Sur 0 882.9 3.4 73
2019-06-07 09:00:00 4.5 13 Sudoeste 33 Oeste 0 881.9 3.6 78
2019-06-07 08:00:00 3.9 13 Oeste 45 Oeste 0 880.9 2.7 76
2019-06-07 07:00:00 3.7 21 Sudoeste 53 Sudoeste 0 879.5 1.8 81
2019-06-07 06:00:00 4.1 26 Sudoeste 57 Sudoeste 0.2 878.3 1.2 84
2019-06-07 05:00:00 4.2 26 Sudoeste 55 Sudoeste 0.2 878.2 1.6 85
2019-06-07 04:00:00 5.3 29 Sudoeste 55 Sudoeste 0 877.7 1.6 77
2019-06-07 03:00:00 5.5 21 Sudoeste 42 Sudoeste 0 877.1 0.9 81
2019-06-07 02:00:00 5.4 25 Sudoeste 44 Sur 0.2 876.6 0.4 82
2019-06-07 01:00:00 6.1 18 Sudoeste 44 Sudoeste 0 876.1 0.6 85
2019-06-07 00:00:00 6.5 16 Sudoeste 51 Sudoeste 1.8 876.2 -0.1 88
2019-06-06 23:00:00 7 33 Sudoeste 85 Sudoeste 5 876.2 -0.3 87
2019-06-06 22:00:00 9 36 Sudoeste 69 Sudoeste 2 875.5 -0.2 91
2019-06-06 21:00:00 9.2 27 Sudoeste 68 Sur 4 876.3 0.1 89
2019-06-06 20:00:00 10 32 Sudoeste 76 Sudoeste 1 876.5 -0.6 77
2019-06-06 19:00:00 14.5 26 Sudoeste 69 Sudoeste 0 875.7 -2.7 42
2019-06-06 18:00:00 15.2 31 Sudoeste 58 Sudoeste 0 876.2 -2.8 39
2019-06-06 17:00:00 16.2 28 Sudoeste 72 Sur 0 877.1 -3 40
2019-06-06 16:00:00 15.7 30 Sur 58 Sur 0 878.4 -2.6 40
2019-06-06 15:00:00 15.7 31 Sudoeste 61 Sur 0 879 -2.7 40
2019-06-06 14:00:00 14.7 24 Sur 52 Sur 0 880.1 -2.4 49
2019-06-06 13:00:00 13.3 23 Sur 48 Sur 0 881 -1.6 50
2019-06-06 12:00:00 10.9 13 Sur 35 Sur 0 881.7 -1.6 58
2019-06-06 11:00:00 8.6 17 Sur 38 Sur 0 882.5 -1.2 66
2019-06-06 10:00:00 7.3 14 Sur 33 Sur 0 882.6 -1.4 81
2019-06-06 09:00:00 5.2 8 Sudeste 16 Sur 0 883.3 -0.8 95
2019-06-06 08:00:00 4.1 5 Nordeste 11 Sur 0 883.7 -0.7 95
2019-06-06 07:00:00 3.8 5 Sudeste 14 Sur 0 884 -0.6 93
2019-06-06 06:00:00 4.1 9 Sur 14 Sur 0 884.1 -0.7 93
2019-06-06 05:00:00 4.5 3 Este 11 Oeste 0 884.4 -0.6 93
2019-06-06 04:00:00 4.6 6 Sudeste 12 Sur 0 884.6 -0.6 93
2019-06-06 03:00:00 4.9 5 Norte 12 Sur 0 884.8 -0.7 93
2019-06-06 02:00:00 5.1 8 Sur 12 Sur 0 885 -0.2 92
2019-06-06 01:00:00 5.2 4 Sudeste 14 Oeste 0 885.2 0.3 92
2019-06-06 00:00:00 5.2 6 Norte 12 Oeste 0 885.5 1.1 92
2019-06-05 23:00:00 5.2 6 Nordeste 15 Sur 0 885.2 1 90
2019-06-05 22:00:00 5.7 8 Oeste 14 Oeste 0 884.9 1.2 89
2019-06-05 21:00:00 6.2 6 Nordeste 13 Este 0 884.4 0.8 88
2019-06-05 20:00:00 7.1 9 Este 18 Noroeste 1 884.2 0.8 84
2019-06-05 19:00:00 8.5 7 Nordeste 19 Norte 0 883.7 0.1 77
2019-06-05 18:00:00 9.2 9 Este 23 Oeste 0 883.6 0.5 79
2019-06-05 17:00:00 10.2 10 Este 24 Este 0.4 883.4 0.5 76
2019-06-05 16:00:00 10.1 13 Sudoeste 27 Sudoeste 0.4 883.6 1 65
2019-06-05 15:00:00 12 12 Oeste 38 Oeste 0 883.1 0.8 50
2019-06-05 14:00:00 13.7 14 Oeste 33 Oeste 0 882.9 0.8 47
2019-06-05 13:00:00 12.5 13 Oeste 44 Oeste 0 882.6 0.7 53
2019-06-05 12:00:00 10.4 9 Noroeste 22 Oeste 0 882.3 0.7 61
2019-06-05 11:00:00 9 8 Noroeste 20 Oeste 0 882.1 0.8 74
2019-06-05 10:00:00 8.7 8 Sudeste 17 Oeste 0 881.9 0.7 86
2019-06-05 09:00:00 6.7 10 Oeste 19 Oeste 0 881.6 0.7 89
2019-06-05 08:00:00 5.4 9 Norte 17 Oeste 0 881.3 0.1 93
2019-06-05 07:00:00 5.6 8 Noroeste 18 Oeste 0 881.2 -0.2 93
2019-06-05 06:00:00 5.5 8 Noroeste 17 Oeste 2 880.9 -0.6 92
2019-06-05 05:00:00 5.6 7 Norte 21 Norte 0.2 881.2 -0.7 91
2019-06-05 04:00:00 6.1 9 Noroeste 20 Oeste 0.2 881.4 -0.6 90
2019-06-05 03:00:00 6.3 9 Noroeste 18 Oeste 2.6 881.5 -0.8 90
2019-06-05 02:00:00 7.1 6 Noroeste 21 Noroeste 0.4 881.9 -0.3 85
2019-06-05 01:00:00 7.9 7 Norte 19 Nordeste 0 882 0 81
2019-06-05 00:00:00 8.4 8 Norte 24 Oeste 0 882.3 0.8 81
2019-06-04 23:00:00 8.5 8 Norte 22 Noroeste 0 882.2 0.7 81
2019-06-04 22:00:00 10.1 8 Este 19 Nordeste 0 882 0.7 75
2019-06-04 21:00:00 13.6 8 Nordeste 31 Sudoeste 0 881.5 0.3 62
2019-06-04 20:00:00 17.2 14 Sudoeste 37 Sur 0 881.5 0.2 52
2019-06-04 19:00:00 17.1 16 Sudoeste 42 Sudoeste 0 881.3 -0.3 55
2019-06-04 18:00:00 18.7 23 Sudoeste 48 Sur 0 881.2 -0.8 48
2019-06-04 17:00:00 19 18 Sur 41 Sur 0 881.3 -1.1 47
2019-06-04 16:00:00 18 17 Sur 42 Sur 0 881.6 -1 49
2019-06-04 15:00:00 19.1 18 Sur 42 Sur 0 882 -0.7 48
2019-06-04 14:00:00 18.4 9 Sudoeste 34 Oeste 0 882.4 0.1 52
2019-06-04 13:00:00 17.1 15 Sudoeste 31 Sur 0 882.6 0.7 56
2019-06-04 12:00:00 15.9 18 Sur 35 Sudoeste 0 882.7 0.8 62
2019-06-04 11:00:00 14.5 19 Sudoeste 42 Sudoeste 0 882.3 0.4 68
2019-06-04 10:00:00 13.6 18 Sur 34 Sur 0 881.9 -0.1 71
2019-06-04 09:00:00 12.1 8 Sudeste 19 Sur 0 881.9 -0.2 75
2019-06-04 08:00:00 10.2 4 Este 14 Oeste 0 881.9 -0.5 82
2019-06-04 07:00:00 10.6 5 Noroeste 24 Sur 0 882 -0.6 75
2019-06-04 06:00:00 11.4 8 Noroeste 30 Oeste 0 882.1 -1.2 70
2019-06-04 05:00:00 11.1 10 Sudoeste 30 Sur 0 882.4 -1.8 76
2019-06-04 04:00:00 12 5 Sudoeste 37 Sur 0 882.6 -2.5 74
2019-06-04 03:00:00 11.7 7 Nordeste 32 Sudoeste 0 883.3 -2.1 87
2019-06-04 02:00:00 11.8 5 Norte 13 Oeste 0 884.2 -1.4 90
2019-06-04 01:00:00 13.1 5 Nordeste 12 Sur 0 885.1 -0.1 87
2019-06-04 00:00:00 14.9 7 Sudeste 23 Sur 0 885.4 0.1 74
2019-06-03 23:00:00 19.2 13 Sudoeste 43 Sudoeste 0 885.6 0.5 47
2019-06-03 22:00:00 20.1 14 Sudoeste 28 Sudoeste 0 885.2 0 43
2019-06-03 21:00:00 21.9 17 Sudoeste 41 Sudoeste 0 885.3 -0.3 37
2019-06-03 20:00:00 23.6 15 Sudoeste 46 Sur 0 885.1 -1.2 36
2019-06-03 19:00:00 25.1 21 Sur 43 Sur 0 885.2 -1.5 34
2019-06-03 18:00:00 26.1 14 Sudoeste 38 Sudoeste 0 885.6 -1.6 34
2019-06-03 17:00:00 26 17 Sudoeste 42 Sudoeste 0 886.3 -1.4 35
2019-06-03 16:00:00 26 15 Sudoeste 39 Sur 0 886.7 -1.7 36
2019-06-03 15:00:00 25.2 16 Sudoeste 38 Sur 0 887.2 -1.2 33
2019-06-03 14:00:00 24.4 17 Sur 43 Sur 0 887.7 -0.9 38
2019-06-03 13:00:00 23.4 14 Sudoeste 26 Este 0 888.4 -0.6 40
2019-06-03 12:00:00 20 14 Sudeste 25 Sur 0 888.4 -0.7 54
2019-06-03 11:00:00 16.7 6 Sudeste 13 Sur 0 888.6 0 63
2019-06-03 10:00:00 14.7 5 Este 10 Sudeste 0 889 0.4 62
2019-06-03 09:00:00 12.9 2 Nordeste 6 Nordeste 0 889.1 0.6 76
2019-06-03 08:00:00 10.9 4 Noroeste 20 Oeste 0 888.6 0 75
2019-06-03 07:00:00 9.9 3 Norte 17 Oeste 0 888.6 -0.3 77
2019-06-03 06:00:00 11.2 7 Noroeste 26 Oeste 0 888.5 -0.8 72
2019-06-03 05:00:00 11.5 4 Noroeste 15 Noroeste 0 888.6 -0.9 69
2019-06-03 04:00:00 11.8 5 Noroeste 12 Oeste 0 888.9 -0.9 67
2019-06-03 03:00:00 12.4 6 Noroeste 17 Oeste 0 889.3 -0.5 66
2019-06-03 02:00:00 12.2 4 Noroeste 11 Oeste 0 889.5 -0.3 69
2019-06-03 01:00:00 13.1 4 Sudeste 12 Sur 0 889.8 0.5 64
2019-06-03 00:00:00 13.9 3 Sudoeste 15 Oeste 0 889.8 0.7 57
2019-06-02 23:00:00 15.6 10 Noroeste 19 Oeste 0 889.8 0.9 51
2019-06-02 22:00:00 16.7 11 Oeste 15 Oeste 0 889.3 0.4 47
2019-06-02 21:00:00 19.7 7 Este 19 Oeste 0 889.1 0 43
2019-06-02 20:00:00 24 4 Sudoeste 22 Sudoeste 0 888.9 -0.2 23
2019-06-02 19:00:00 24.6 9 Sudoeste 26 Oeste 0 888.9 -0.5 24
2019-06-02 18:00:00 24.8 10 Sudoeste 29 Oeste 0 889.1 -0.6 21
2019-06-02 17:00:00 25.7 13 Sudoeste 30 Sur 0 889.1 -1.1 21
2019-06-02 16:00:00 25 10 Oeste 33 Oeste 0 889.4 -1.1 24
2019-06-02 15:00:00 25.4 9 Oeste 30 Sudoeste 0 889.7 -0.6 25
2019-06-02 14:00:00 25.3 13 Sudoeste 31 Sur 0 890.2 -0.2 29
2019-06-02 13:00:00 24.4 12 Sudoeste 42 Sur 0 890.5 -0.1 40
2019-06-02 12:00:00 23.4 19 Sur 33 Sur 0 890.3 -0.2 40
2019-06-02 11:00:00 21 14 Sur 22 Sur 0 890.4 0.1 52
2019-06-02 10:00:00 19.1 9 Este 19 Sur 0 890.6 0.3 53
2019-06-02 09:00:00 16.9 8 Sur 15 Sur 0 890.5 0.1 66
2019-06-02 08:00:00 13.9 6 Noroeste 16 Noroeste 0 890.3 -0.3 61
2019-06-02 07:00:00 13.5 9 Noroeste 27 Oeste 0 890.3 -0.5 58
2019-06-02 06:00:00 13.9 8 Noroeste 18 Oeste 0 890.4 -0.5 56
2019-06-02 05:00:00 14.3 10 Noroeste 21 Oeste 0 890.6 -0.6 54
2019-06-02 04:00:00 14.1 11 Noroeste 21 Oeste 0 890.8 -0.6 54
2019-06-02 03:00:00 15.4 12 Noroeste 22 Noroeste 0 890.9 -0.7 49
2019-06-02 02:00:00 15.8 16 Oeste 21 Oeste 0 891.2 -0.2 47
2019-06-02 01:00:00 17.2 13 Noroeste 22 Noroeste 0 891.4 0.5 42
2019-06-02 00:00:00 17.9 16 Oeste 24 Oeste 0 891.6 0.9 42
2019-06-01 23:00:00 18.9 14 Oeste 21 Oeste 0 891.4 1 39
2019-06-01 22:00:00 20.2 6 Sudoeste 22 Oeste 0 890.9 0.5 38
2019-06-01 21:00:00 23.7 5 Nordeste 17 Norte 0 890.7 0.1 36
2019-06-01 20:00:00 28.3 6 Oeste 24 Oeste 0 890.4 -0.6 20
2019-06-01 19:00:00 29.3 9 Sudoeste 29 Oeste 0 890.4 -1 21
2019-06-01 18:00:00 29.4 7 Sudoeste 29 Sur 0 890.6 -1.3 21
2019-06-01 17:00:00 29.4 8 Sudoeste 33 Sur 0 891 -1.4 25
2019-06-01 16:00:00 29.2 10 Sudoeste 31 Sudoeste 0 891.4 -1.4 24
2019-06-01 15:00:00 28.5 11 Sudoeste 29 Sudoeste 0 891.9 -1 24
2019-06-01 14:00:00 28.3 10 Sudoeste 29 Sudoeste 0 892.4 -0.7 25
2019-06-01 13:00:00 27.6 12 Sudoeste 26 Sudoeste 0 892.8 -0.4 26
2019-06-01 12:00:00 25.5 8 Sudeste 24 Sur 0 892.9 -0.2 33
2019-06-01 11:00:00 21.1 11 Sudeste 19 Sur 0 893.1 0 45
2019-06-01 10:00:00 18.3 5 Nordeste 15 Oeste 0 893.2 0.2 57
2019-06-01 09:00:00 15.7 6 Oeste 16 Noroeste 0 893.1 0.2 54
2019-06-01 08:00:00 13.4 9 Noroeste 27 Oeste 0 893.1 0 58
2019-06-01 07:00:00 12.6 8 Noroeste 17 Oeste 0 893 -0.2 59
2019-06-01 06:00:00 13 8 Noroeste 28 Oeste 0 892.9 -0.5 58
2019-06-01 05:00:00 13.5 10 Noroeste 16 Noroeste 0 893.1 -0.6 57
2019-06-01 04:00:00 13.3 8 Oeste 22 Oeste 0 893.2 -0.9 57
2019-06-01 03:00:00 13.8 11 Noroeste 23 Noroeste 0 893.4 -0.8 54
2019-06-01 02:00:00 14.5 11 Noroeste 22 Noroeste 0 893.7 -0.4 54
2019-06-01 01:00:00 14.2 10 Noroeste 21 Oeste 0 894.1 0.5 54
2019-06-01 00:00:00 15.1 9 Noroeste 19 Oeste 0 894.2 0.7 51
2019-05-31 23:00:00 17.1 10 Noroeste 21 Oeste 0 894.1 0.7 46
2019-05-31 22:00:00 19.5 11 Oeste 19 Oeste 0 893.6 0.1 40
2019-05-31 21:00:00 22.7 4 Norte 16 Oeste 0 893.5 0 35
2019-05-31 20:00:00 26.2 7 Este 20 Este 0 893.4 -0.5 31
2019-05-31 19:00:00 26.9 10 Este 22 Este 0 893.5 -0.8 28
2019-05-31 18:00:00 27 13 Sudeste 29 Sudeste 0 893.5 -1.1 26
2019-05-31 17:00:00 27.6 10 Este 25 Este 0 893.9 -1.1 25
2019-05-31 16:00:00 27 10 Este 23 Este 0 894.3 -1 27
2019-05-31 15:00:00 26.7 9 Sudeste 24 Sur 0 894.6 -0.8 29
2019-05-31 14:00:00 25.9 10 Este 23 Sur 0 895 -0.4 28
2019-05-31 13:00:00 25.1 12 Sudeste 27 Sur 0 895.3 -0.2 33
2019-05-31 12:00:00 23.4 10 Sudeste 23 Sur 0 895.4 -0.2 33
2019-05-31 11:00:00 20 10 Sur 18 Sur 0 895.4 -0.2 39
2019-05-31 10:00:00 17.1 4 Oeste 16 Noroeste 0 895.5 0 48
2019-05-31 09:00:00 14.5 8 Noroeste 14 Noroeste 0 895.6 0.1 45
2019-05-31 08:00:00 12.2 10 Noroeste 27 Oeste 0 895.6 -0.2 51
2019-05-31 07:00:00 11 9 Noroeste 27 Oeste 0 895.5 -0.4 53
2019-05-31 06:00:00 10.5 9 Noroeste 23 Oeste 0 895.5 -0.8 54
2019-05-31 05:00:00 10.4 9 Noroeste 17 Oeste 0 895.8 -0.9 57
2019-05-31 04:00:00 11.3 6 Noroeste 17 Noroeste 0 895.9 -1.2 59
2019-05-31 03:00:00 11.2 7 Norte 17 Noroeste 0 896.3 -0.9 63
2019-05-31 02:00:00 11.3 7 Noroeste 19 Oeste 0 896.7 -0.4 68
2019-05-31 01:00:00 13.1 8 Noroeste 20 Noroeste 0 897.1 0.5 66
2019-05-31 00:00:00 14.8 14 Noroeste 22 Noroeste 0 897.2 1.1 55
2019-05-30 23:00:00 15.6 12 Noroeste 21 Oeste 0 897.1 1.3 55
2019-05-30 22:00:00 16.6 10 Noroeste 22 Oeste 0 896.6 0.6 53
2019-05-30 21:00:00 19.6 12 Noroeste 23 Noroeste 0 896.1 0.1 46
2019-05-30 20:00:00 21.9 11 Norte 24 Norte 0 895.8 -0.4 38
2019-05-30 19:00:00 22.2 7 Sudeste 21 Sudeste 0 896 -0.4 51
2019-05-30 18:00:00 23.6 13 Sudeste 26 Sur 0 896 -0.7 41
2019-05-30 17:00:00 25.4 12 Sudeste 26 Sur 0 896.2 -0.6 38
2019-05-30 16:00:00 25.2 10 Sur 28 Sur 0 896.4 -0.4 34
2019-05-30 15:00:00 24.1 15 Sudeste 27 Sur 0 896.7 -0.3 40
2019-05-30 14:00:00 23.5 13 Sudeste 24 Sudeste 0 896.8 -0.2 40
2019-05-30 13:00:00 22.3 12 Sudeste 24 Sur 0 896.8 -0.3 38
2019-05-30 12:00:00 20.3 12 Sur 21 Sudeste 0 897 0 46
2019-05-30 11:00:00 16.6 6 Sudeste 14 Sur 0 897 0.4 50
2019-05-30 10:00:00 13.7 3 Este 17 Sudoeste 0 897.1 0.6 64
2019-05-30 09:00:00 10.6 3 Oeste 20 Oeste 0 897 0.5 68
2019-05-30 08:00:00 8.6 7 Noroeste 24 Noroeste 0 896.6 0.3 68
2019-05-30 07:00:00 6.3 13 Oeste 22 Oeste 0 896.5 0.1 80
2019-05-30 06:00:00 6.4 12 Oeste 20 Oeste 0 896.5 0.1 81
2019-05-30 05:00:00 6.2 12 Oeste 21 Oeste 0 896.3 -0.4 86
2019-05-30 04:00:00 6.5 8 Oeste 20 Oeste 0 896.4 -0.6 89
2019-05-30 03:00:00 7.7 4 Noroeste 21 Oeste 0 896.4 -0.6 80
2019-05-30 02:00:00 8.8 5 Norte 13 Norte 0 896.7 -0.1 77
2019-05-30 01:00:00 9.3 5 Norte 16 Noroeste 0 897 0.8 74
2019-05-30 00:00:00 10.1 7 Noroeste 15 Noroeste 0 897 1.2 70
2019-05-29 23:00:00 11.9 7 Noroeste 16 Noroeste 0 896.8 1.5 65
2019-05-29 22:00:00 12.8 3 Noroeste 30 Norte 0 896.2 1.1 60
2019-05-29 21:00:00 15 13 Norte 28 Norte 0 895.8 0.6 55
2019-05-29 20:00:00 18.2 12 Norte 28 Nordeste 0 895.3 -0.1 44
2019-05-29 19:00:00 18.9 14 Norte 29 Norte 0 895.1 -0.2 43
2019-05-29 18:00:00 19.3 14 Norte 28 Nordeste 0 895.2 -0.2 40
2019-05-29 17:00:00 19.9 12 Norte 30 Norte 0 895.4 -0.1 39
2019-05-29 16:00:00 19.5 15 Norte 33 Nordeste 0 895.3 -0.1 40
2019-05-29 15:00:00 18.4 17 Norte 38 Nordeste 0 895.4 0.1 43
2019-05-29 14:00:00 17.9 16 Noroeste 35 Noroeste 0 895.5 0.5 47
2019-05-29 13:00:00 16.6 16 Norte 31 Noroeste 0 895.4 0.5 48
2019-05-29 12:00:00 15.1 13 Norte 31 Norte 0 895.3 0.7 52
2019-05-29 11:00:00 13.2 12 Norte 28 Norte 0 895 0.8 60
2019-05-29 10:00:00 11.3 10 Norte 22 Norte 0 894.9 1.1 65
2019-05-29 09:00:00 9 8 Norte 22 Oeste 0 894.6 1.1 73
2019-05-29 08:00:00 6.5 10 Oeste 24 Oeste 0 894.2 0.6 78
2019-05-29 07:00:00 4.3 6 Oeste 20 Oeste 0 893.8 0.2 84
2019-05-29 06:00:00 5.8 8 Noroeste 23 Noroeste 0 893.5 -0.2 78
2019-05-29 05:00:00 6 10 Norte 33 Norte 0 893.6 0 77
2019-05-29 04:00:00 6.1 14 Norte 31 Noroeste 0 893.6 -0.1 78
2019-05-29 03:00:00 5.5 14 Norte 26 Norte 0 893.7 0.1 78
2019-05-29 02:00:00 5.6 15 Norte 29 Norte 0 893.6 0.3 77
2019-05-29 01:00:00 5.9 16 Norte 24 Noroeste 0 893.7 1.1 75
2019-05-29 00:00:00 6 13 Norte 30 Norte 0 893.6 1.4 74
2019-05-28 23:00:00 6.3 15 Norte 27 Norte 0 893.3 1.4 76
2019-05-28 22:00:00 7.4 12 Norte 30 Norte 0 892.6 1.4 73
2019-05-28 21:00:00 9.1 12 Norte 33 Nordeste 0 892.2 1.5 62
2019-05-28 20:00:00 12.5 13 Norte 31 Norte 0 891.9 1.4 52
2019-05-28 19:00:00 13.2 15 Norte 38 Norte 0 891.2 0.8 52
2019-05-28 18:00:00 13.4 21 Norte 45 Norte 0 890.7 0.5 53
2019-05-28 17:00:00 15.3 17 Norte 39 Norte 0 890.5 0.3 51
2019-05-28 16:00:00 16.3 13 Norte 33 Nordeste 0 890.4 0.3 44
2019-05-28 15:00:00 15.2 15 Norte 36 Nordeste 0 890.2 0.1 46
2019-05-28 14:00:00 15.3 10 Norte 31 Norte 0 890.2 0.1 49
2019-05-28 13:00:00 14.3 12 Norte 41 Nordeste 0 890.1 0.1 51
2019-05-28 12:00:00 11.7 15 Norte 38 Nordeste 0 890.1 0.4 56
2019-05-28 11:00:00 10 14 Norte 30 Norte 0 890.1 0.9 59
2019-05-28 10:00:00 8.3 11 Norte 31 Norte 0 890 1.2 63
2019-05-28 09:00:00 6.7 17 Norte 41 Norte 0 889.7 1.3 69
2019-05-28 08:00:00 4.9 10 Norte 22 Norte 0 889.2 0.8 85
2019-05-28 07:00:00 3.4 9 Norte 18 Norte 0 888.8 0.3 90
2019-05-28 06:00:00 3.3 8 Noroeste 15 Norte 0 888.4 0 88
2019-05-28 05:00:00 4.7 8 Norte 18 Norte 0 888.4 -0.2 84
2019-05-28 04:00:00 5.5 10 Norte 20 Oeste 0 888.5 -0.4 83
2019-05-28 03:00:00 5.7 9 Noroeste 20 Noroeste 0 888.4 -0.4 83
2019-05-28 02:00:00 5.8 9 Noroeste 21 Oeste 0 888.6 -0.2 84
2019-05-28 01:00:00 6.4 10 Norte 24 Norte 0 888.9 0.6 83
2019-05-28 00:00:00 7.2 13 Norte 32 Norte 0 888.8 1.2 81
2019-05-27 23:00:00 7.9 11 Norte 29 Norte 0 888.8 1.3 80
2019-05-27 22:00:00 8.8 12 Norte 32 Norte 0 888.3 1.2 81
2019-05-27 21:00:00 10.5 12 Norte 30 Norte 0 887.6 0.6 75
2019-05-27 20:00:00 12.7 15 Norte 35 Norte 0 887.5 0.5 66
2019-05-27 19:00:00 15.7 13 Norte 33 Norte 0 887.1 -0.2 61
2019-05-27 18:00:00 17.1 17 Norte 31 Nordeste 0 887 -0.8 57
2019-05-27 17:00:00 19.1 14 Norte 33 Norte 0 887 -1.1 53
2019-05-27 16:00:00 19.5 14 Norte 34 Norte 0 887.3 -0.9 51
2019-05-27 15:00:00 18 12 Norte 28 Noroeste 0 887.8 -0.4 54
2019-05-27 14:00:00 18.5 12 Norte 28 Norte 0 888.1 -0.2 55
2019-05-27 13:00:00 17.1 12 Norte 26 Nordeste 0 888.2 0.1 58
2019-05-27 12:00:00 15.5 12 Norte 27 Norte 0 888.2 0.1 69
2019-05-27 11:00:00 14.5 11 Este 25 Nordeste 0 888.3 0.2 70
2019-05-27 10:00:00 12.8 6 Sudeste 20 Sur 0 888.1 0.1 79
2019-05-27 09:00:00 9.3 3 Oeste 17 Sudoeste 0 888.1 0 92
2019-05-27 08:00:00 6.1 8 Oeste 19 Oeste 0 888.1 -0.2 94
2019-05-27 07:00:00 5.3 10 Oeste 20 Oeste 0 888 -0.8 94
2019-05-27 06:00:00 5.9 7 Norte 21 Oeste 0 888.1 -0.9 93
2019-05-27 05:00:00 6.1 8 Sur 16 Oeste 0 888.3 -1 91
2019-05-27 04:00:00 6.7 4 Sudoeste 16 Sur 0 888.8 -1.1 89
2019-05-27 03:00:00 8.6 4 Nordeste 18 Sur 0 889 -1.4 83
2019-05-27 02:00:00 9.6 5 Norte 15 Oeste 0 889.3 -1.2 84
2019-05-27 01:00:00 9.6 3 Norte 18 Oeste 0 889.9 -0.2 85
2019-05-27 00:00:00 9.7 4 Noroeste 16 Sudoeste 0 890.4 0.3 84
2019-05-26 23:00:00 10.6 9 Norte 18 Nordeste 0 890.5 0.4 80
2019-05-26 22:00:00 12 3 Nordeste 22 Nordeste 0 890.1 0.1 72
2019-05-26 21:00:00 15.5 9 Nordeste 23 Nordeste 0 890.1 -0.2 60
2019-05-26 20:00:00 19.5 6 Sudeste 28 Nordeste 0 890.1 -0.4 49
2019-05-26 19:00:00 20.2 15 Norte 30 Norte 0 890 -0.6 44
2019-05-26 18:00:00 21.8 13 Nordeste 37 Nordeste 0 890.3 -0.7 40
2019-05-26 17:00:00 21.9 14 Nordeste 33 Nordeste 0 890.5 -0.8 40
2019-05-26 16:00:00 22.4 12 Nordeste 31 Nordeste 0 890.6 -1.1 40
2019-05-26 15:00:00 22.1 12 Nordeste 30 Nordeste 0 891 -1 41
2019-05-26 14:00:00 20.8 11 Nordeste 33 Nordeste 0 891.3 -0.8 47
2019-05-26 13:00:00 19.1 13 Nordeste 33 Nordeste 0 891.7 -0.6 48
2019-05-26 12:00:00 17.5 12 Sudeste 26 Este 0 892 -0.5 56
2019-05-26 11:00:00 13.6 9 Sudeste 24 Sur 0 892.1 -0.2 65
2019-05-26 10:00:00 11.2 13 Sur 20 Sur 0 892.3 0.3 71
2019-05-26 09:00:00 8.8 8 Sudoeste 18 Sur 0 892.5 0.2 81
2019-05-26 08:00:00 5.9 12 Oeste 20 Oeste 0 892.3 0.1 91
2019-05-26 07:00:00 5.2 13 Oeste 23 Oeste 0 892 -0.4 90
2019-05-26 06:00:00 5.3 9 Noroeste 20 Oeste 0 892.3 -0.3 90
2019-05-26 05:00:00 5.7 9 Oeste 22 Oeste 0 892.2 -0.7 87
2019-05-26 04:00:00 6.6 10 Noroeste 29 Norte 0 892.4 -0.5 84
2019-05-26 03:00:00 7.3 14 Norte 32 Norte 0 892.6 -0.8 81
2019-05-26 02:00:00 7.3 12 Norte 31 Norte 0 892.9 -0.3 81
2019-05-26 01:00:00 7.2 17 Norte 37 Norte 0 892.9 0.3 81
2019-05-26 00:00:00 7.4 13 Norte 32 Norte 0 893.4 1.2 85